Wittenbergen — V2DA — position and weather

sailwx.info

Track history (hours):
 
Tides and Currents Weather Stations Pressure Air Temp Water Temp Dewpoint Dewpoint Depression Visibility Wind Speed Wind Dir Waves Ship Positions

Wittenbergen

Last reported at 2018-Jun-21 17:59 UTC. Time now 2018-Jun-21 18:07 UTC.
Position N 51°50' W 008°20'.

Length 88 m; draft 3.6 m.

Type: Cargo ship. MMSI: 304341000.

Date/timePositionNaut miles runAvg speedWind from/ knotsBaromVisibWave heightAir tempDewpointWater temp
2018-Jun-21 17:59N 51°50' W 008°20'0 0.0
2018-Jun-21 17:29N 51°50' W 008°20'0 0.0
2018-Jun-21 16:59N 51°50' W 008°20'0 0.0
2018-Jun-21 16:29N 51°50' W 008°20'0 0.0
2018-Jun-21 15:59N 51°50' W 008°20'0 0.0
2018-Jun-21 15:29N 51°50' W 008°20'0 0.0
2018-Jun-21 14:59N 51°50' W 008°20'0 0.0
2018-Jun-21 14:29N 51°50' W 008°20'0 0.0
2018-Jun-21 13:59N 51°50' W 008°20'0 0.0
2018-Jun-21 13:29N 51°50' W 008°20'0 0.0
2018-Jun-21 12:59N 51°50' W 008°20'0 0.0
2018-Jun-21 12:29N 51°50' W 008°20'0 0.0
2018-Jun-21 11:59N 51°50' W 008°20'0 0.0
2018-Jun-21 11:29N 51°50' W 008°20'0 0.0
2018-Jun-21 10:59N 51°50' W 008°20'0 0.0
2018-Jun-21 10:29N 51°50' W 008°20'0 0.0
2018-Jun-21 09:59N 51°50' W 008°20'0 0.0
2018-Jun-21 09:29N 51°50' W 008°20'0 0.0
2018-Jun-21 08:59N 51°50' W 008°20'0 0.0
2018-Jun-21 08:29N 51°50' W 008°20'0 0.0
2018-Jun-21 07:59N 51°50' W 008°20'0 0.0
2018-Jun-21 07:29N 51°50' W 008°20'0 0.0
2018-Jun-21 06:59N 51°50' W 008°20'0 0.0
2018-Jun-21 06:31N 51°50' W 008°20'2 3.1
2018-Jun-21 06:01N 51°51' W 008°18'3 5.9
2018-Jun-21 05:30N 51°48' W 008°16'3 6.8
2018-Jun-21 05:01N 51°45' W 008°14'4 8.6
2018-Jun-21 04:30N 51°44' W 008°07'4 8.7
2018-Jun-21 04:01N 51°45' W 008°00'4 8.9
2018-Jun-21 03:31N 51°46' W 007°53'4 9.0
2018-Jun-21 03:01N 51°48' W 007°46'4 8.9
2018-Jun-21 02:31N 51°49' W 007°39'4 9.0
2018-Jun-21 02:01N 51°50' W 007°32'4 8.7
2018-Jun-21 01:30N 51°51' W 007°25'53 8.8
2018-Jun-20 19:25N 52°13' W 006°06'711.2
2018-Jun-20 18:48N 52°19' W 005°60'310.7
2018-Jun-20 18:31N 52°21' W 005°57'2010.1
2018-Jun-20 16:30N 52°39' W 005°40'5 9.1
2018-Jun-20 15:59N 52°43' W 005°36'4 8.5
2018-Jun-20 15:31N 52°46' W 005°33'4 8.2
2018-Jun-20 15:00N 52°50' W 005°29'4 7.7
2018-Jun-20 14:30N 52°53' W 005°26'70 8.1
2018-Jun-20 05:52N 53°34' W 003°52'3 9.2
2018-Jun-20 05:30N 53°34' W 003°46'5 8.8
2018-Jun-20 04:59N 53°34' W 003°38'4 8.6
2018-Jun-20 04:30N 53°34' W 003°31'5 9.0
2018-Jun-20 04:00N 53°33' W 003°24'5 9.0
2018-Jun-20 03:29N 53°32' W 003°16'4 7.7
2018-Jun-20 03:00N 53°32' W 003°10'4 8.6
2018-Jun-20 02:31N 53°29' W 003°05'4 7.7
2018-Jun-20 02:00N 53°26' W 003°01'2 3.1
2018-Jun-20 01:30N 53°24' W 003°01'0 0.0
2018-Jun-20 01:00N 53°24' W 003°01'0 0.0
2018-Jun-20 00:30N 53°24' W 003°01'0 0.8
2018-Jun-20 00:00N 53°24' W 003°02'0 0.0
2018-Jun-19 23:27N 53°24' W 003°02'0 0.0
2018-Jun-19 23:00N 53°24' W 003°02'0 0.0
2018-Jun-19 22:30N 53°24' W 003°02'0 0.0
2018-Jun-19 22:00N 53°24' W 003°02'0 0.0
2018-Jun-19 21:30N 53°24' W 003°02'0 0.0
2018-Jun-19 21:00N 53°24' W 003°02'0 0.0
2018-Jun-19 20:27N 53°24' W 003°02'0 0.0
2018-Jun-19 20:00N 53°24' W 003°02'0 0.0
2018-Jun-19 19:27N 53°24' W 003°02'0 0.0
2018-Jun-19 19:00N 53°24' W 003°02'0 0.0
2018-Jun-19 18:30N 53°24' W 003°02'0 0.0
2018-Jun-19 18:00N 53°24' W 003°02'0 0.0
2018-Jun-19 17:30N 53°24' W 003°02'0 0.0
2018-Jun-19 17:00N 53°24' W 003°02'0 0.0
2018-Jun-19 16:27N 53°24' W 003°02'0 0.0
2018-Jun-19 15:57N 53°24' W 003°02'0 0.0
2018-Jun-19 15:30N 53°24' W 003°02'0 0.0
2018-Jun-19 15:00N 53°24' W 003°02'0 0.0
2018-Jun-19 14:30N 53°24' W 003°02'0 0.0
2018-Jun-19 13:48N 53°24' W 003°02'0 0.0
2018-Jun-19 13:30N 53°24' W 003°02'0 0.0
2018-Jun-19 13:00N 53°24' W 003°02'0 0.0
2018-Jun-19 12:30N 53°24' W 003°02'0 0.0
2018-Jun-19 12:00N 53°24' W 003°02'0 0.0
2018-Jun-19 11:24N 53°24' W 003°02'0 0.0
2018-Jun-19 11:00N 53°24' W 003°02'0 0.0
2018-Jun-19 10:30N 53°24' W 003°02'0 0.0
2018-Jun-19 09:54N 53°24' W 003°02'0 0.0
2018-Jun-19 09:30N 53°24' W 003°02'0 0.0
2018-Jun-19 09:00N 53°24' W 003°02'0 0.0
2018-Jun-19 08:30N 53°24' W 003°02'0 0.0
2018-Jun-19 08:00N 53°24' W 003°02'0 0.0
2018-Jun-19 07:30N 53°24' W 003°02'0 0.0
2018-Jun-19 07:00N 53°24' W 003°02'0 0.0
2018-Jun-19 06:27N 53°24' W 003°02'0 0.0
2018-Jun-19 06:00N 53°24' W 003°02'0 0.0
2018-Jun-19 05:30N 53°24' W 003°02'0 0.0
2018-Jun-19 05:00N 53°24' W 003°02'0 0.0
2018-Jun-19 04:30N 53°24' W 003°02'0 0.0
2018-Jun-19 04:00N 53°24' W 003°02'0 0.0
2018-Jun-19 03:30N 53°24' W 003°02'0 0.0
2018-Jun-19 03:00N 53°24' W 003°02'0 0.0
2018-Jun-19 02:30N 53°24' W 003°02'0 0.0
2018-Jun-19 02:00N 53°24' W 003°02'0 0.0
2018-Jun-19 01:30N 53°24' W 003°02'0 0.0
2018-Jun-19 01:00N 53°24' W 003°02'0 0.0
2018-Jun-19 00:30N 53°24' W 003°02'0 0.0
2018-Jun-19 00:00N 53°24' W 003°02'0 0.0
2018-Jun-18 23:30N 53°24' W 003°02'0 0.0
2018-Jun-18 23:00N 53°24' W 003°02'0 0.0
2018-Jun-18 22:30N 53°24' W 003°02'0 0.0
2018-Jun-18 22:00N 53°24' W 003°02'0 0.0
2018-Jun-18 21:27N 53°24' W 003°02'0 0.0
2018-Jun-18 21:00N 53°24' W 003°02'0 0.0
2018-Jun-18 20:30N 53°24' W 003°02'0 0.0
2018-Jun-18 20:00N 53°24' W 003°02'0 0.0
2018-Jun-18 19:30N 53°24' W 003°02'0 0.0
2018-Jun-18 19:00N 53°24' W 003°02'0 0.0
2018-Jun-18 18:30N 53°24' W 003°02'0 0.0
2018-Jun-18 18:00N 53°24' W 003°02'0 0.0
2018-Jun-18 17:30N 53°24' W 003°02'0 0.0
2018-Jun-18 17:00N 53°24' W 003°02'0 0.0
2018-Jun-18 16:27N 53°24' W 003°02'0 0.0
2018-Jun-18 16:00N 53°24' W 003°02'0 0.0
2018-Jun-18 15:18N 53°24' W 003°02'0 0.0
2018-Jun-18 15:00N 53°24' W 003°02'0 0.0
2018-Jun-18 14:27N 53°24' W 003°02'0 0.0
2018-Jun-18 13:57N 53°24' W 003°02'0 0.0
2018-Jun-18 13:30N 53°24' W 003°02'0 0.0
2018-Jun-18 13:00N 53°24' W 003°02'0 0.0
2018-Jun-18 12:30N 53°24' W 003°02'0 0.0
2018-Jun-18 12:00N 53°24' W 003°02'0 0.0
2018-Jun-18 11:24N 53°24' W 003°02'0 0.0
2018-Jun-18 11:00N 53°24' W 003°02'0 0.0
2018-Jun-18 10:30N 53°24' W 003°02'0 0.0
2018-Jun-18 10:00N 53°24' W 003°02'0 0.0
2018-Jun-18 09:30N 53°24' W 003°02'0 0.0
2018-Jun-18 08:57N 53°24' W 003°02'0 0.0
2018-Jun-18 08:30N 53°24' W 003°02'0 0.0
2018-Jun-18 08:00N 53°24' W 003°02'0 0.0
2018-Jun-18 07:30N 53°24' W 003°02'0 0.0
2018-Jun-18 07:00N 53°24' W 003°02'0 0.0
2018-Jun-18 06:15N 53°24' W 003°02'0 0.0
2018-Jun-18 06:00N 53°24' W 003°02'0 0.0
2018-Jun-18 05:30N 53°24' W 003°02'0 0.0
2018-Jun-18 05:00N 53°24' W 003°02'0 0.0
2018-Jun-18 04:30N 53°24' W 003°02'0 0.0
2018-Jun-18 03:57N 53°24' W 003°02'0 0.0
2018-Jun-18 03:30N 53°24' W 003°02'0 0.0
2018-Jun-18 03:00N 53°24' W 003°02'0 0.0
2018-Jun-18 02:30N 53°24' W 003°02'0 0.0
2018-Jun-18 02:00N 53°24' W 003°02'0 0.0
2018-Jun-18 01:30N 53°24' W 003°02'0 0.0
2018-Jun-18 01:00N 53°24' W 003°02'0 0.0
2018-Jun-18 00:30N 53°24' W 003°02'0 0.0
2018-Jun-18 00:00N 53°24' W 003°02'0 0.0
2018-Jun-17 23:30N 53°24' W 003°02'0 0.0
2018-Jun-17 23:00N 53°24' W 003°02'0 0.0
2018-Jun-17 22:30N 53°24' W 003°02'0 0.0
2018-Jun-17 22:00N 53°24' W 003°02'0 0.0
2018-Jun-17 21:30N 53°24' W 003°02'0 0.0
2018-Jun-17 21:00N 53°24' W 003°02'0 0.0
2018-Jun-17 20:30N 53°24' W 003°02'0 0.0
2018-Jun-17 20:00N 53°24' W 003°02'0 0.0
2018-Jun-17 19:27N 53°24' W 003°02'0 0.0
2018-Jun-17 19:00N 53°24' W 003°02'0 0.0
2018-Jun-17 18:30N 53°24' W 003°02'0 0.0
2018-Jun-17 18:00N 53°24' W 003°02'0 0.0
2018-Jun-17 17:27N 53°24' W 003°02'0 0.0
2018-Jun-17 16:54N 53°24' W 003°02'0 0.0
2018-Jun-17 16:30N 53°24' W 003°02'0 0.0
2018-Jun-17 16:00N 53°24' W 003°02'0 0.0
2018-Jun-17 15:30N 53°24' W 003°02'0 0.0
2018-Jun-17 15:00N 53°24' W 003°02'0 0.0
2018-Jun-17 14:30N 53°24' W 003°02'0 0.8
2018-Jun-17 14:00N 53°24' W 003°01'0 0.0
2018-Jun-17 13:30N 53°24' W 003°01'0 0.1
2018-Jun-17 13:00N 53°24' W 003°01'1 1.1
2018-Jun-17 12:30N 53°25' W 003°00'3 6.4
2018-Jun-17 12:00N 53°28' W 003°03'3 6.9
2018-Jun-17 11:30N 53°30' W 003°06'3 6.0
2018-Jun-17 11:00N 53°31' W 003°11'4 7.3
2018-Jun-17 10:29N 53°31' W 003°17'3 6.8
2018-Jun-17 10:00N 53°31' W 003°23'2 4.5
2018-Jun-17 09:30N 53°28' W 003°24'0 0.1
2018-Jun-17 08:59N 53°28' W 003°24'0 0.0
2018-Jun-17 08:29N 53°28' W 003°24'0 0.0
2018-Jun-17 07:56N 53°28' W 003°24'0 0.1
2018-Jun-17 07:29N 53°28' W 003°24'0 0.1
2018-Jun-17 06:56N 53°28' W 003°24'0 0.1
2018-Jun-17 06:29N 53°28' W 003°24'0 0.0
2018-Jun-17 05:59N 53°28' W 003°24'0 0.0
2018-Jun-17 05:29N 53°28' W 003°24'0 0.0
2018-Jun-17 04:59N 53°28' W 003°24'0 0.0
2018-Jun-17 04:29N 53°28' W 003°24'0 0.0
2018-Jun-17 03:59N 53°28' W 003°24'0 0.0
2018-Jun-17 03:26N 53°28' W 003°24'0 0.0
2018-Jun-17 02:59N 53°28' W 003°24'0 0.0
2018-Jun-17 02:29N 53°28' W 003°24'0 0.2
2018-Jun-17 01:56N 53°28' W 003°24'0 0.1
2018-Jun-17 01:29N 53°28' W 003°24'0 0.1
2018-Jun-17 00:59N 53°28' W 003°24'0 0.0
2018-Jun-17 00:29N 53°28' W 003°24'0 0.2
2018-Jun-17 00:00N 53°28' W 003°24'2 4.3
2018-Jun-16 23:31N 53°30' W 003°26'4 7.8
2018-Jun-16 23:00N 53°30' W 003°33'5 9.4
2018-Jun-16 22:30N 53°31' W 003°41'5 9.9
2018-Jun-16 21:59N 53°31' W 003°50'347 7.8
2018-Jun-15 01:38N 47°57' W 006°15'9 8.7
2018-Jun-15 00:38N 47°48' W 006°19'7 8.8
2018-Jun-14 23:53N 47°42' W 006°22'  
Track history (hours):
 
Tides and Currents Weather Stations Pressure Air Temp Water Temp Dewpoint Dewpoint Depression Visibility Wind Speed Wind Dir Waves Ship Positions

Wittenbergen

Last reported at 2018-Jun-21 17:59 UTC. Time now 2018-Jun-21 18:07 UTC.
Position N 51°50' W 008°20'.

Length 88 m; draft 3.6 m.

Type: Cargo ship. MMSI: 304341000.

Date/timePositionNaut miles runAvg speedWind from/ knotsBaromVisibWave heightAir tempDewpointWater temp
2018-Jun-21 17:59N 51°50' W 008°20'0 0.0
2018-Jun-21 17:29N 51°50' W 008°20'0 0.0
2018-Jun-21 16:59N 51°50' W 008°20'0 0.0
2018-Jun-21 16:29N 51°50' W 008°20'0 0.0
2018-Jun-21 15:59N 51°50' W 008°20'0 0.0
2018-Jun-21 15:29N 51°50' W 008°20'0 0.0
2018-Jun-21 14:59N 51°50' W 008°20'0 0.0
2018-Jun-21 14:29N 51°50' W 008°20'0 0.0
2018-Jun-21 13:59N 51°50' W 008°20'0 0.0
2018-Jun-21 13:29N 51°50' W 008°20'0 0.0
2018-Jun-21 12:59N 51°50' W 008°20'0 0.0
2018-Jun-21 12:29N 51°50' W 008°20'0 0.0
2018-Jun-21 11:59N 51°50' W 008°20'0 0.0
2018-Jun-21 11:29N 51°50' W 008°20'0 0.0
2018-Jun-21 10:59N 51°50' W 008°20'0 0.0
2018-Jun-21 10:29N 51°50' W 008°20'0 0.0
2018-Jun-21 09:59N 51°50' W 008°20'0 0.0
2018-Jun-21 09:29N 51°50' W 008°20'0 0.0
2018-Jun-21 08:59N 51°50' W 008°20'0 0.0
2018-Jun-21 08:29N 51°50' W 008°20'0 0.0
2018-Jun-21 07:59N 51°50' W 008°20'0 0.0
2018-Jun-21 07:29N 51°50' W 008°20'0 0.0
2018-Jun-21 06:59N 51°50' W 008°20'0 0.0
2018-Jun-21 06:31N 51°50' W 008°20'2 3.1
2018-Jun-21 06:01N 51°51' W 008°18'3 5.9
2018-Jun-21 05:30N 51°48' W 008°16'3 6.8
2018-Jun-21 05:01N 51°45' W 008°14'4 8.6
2018-Jun-21 04:30N 51°44' W 008°07'4 8.7
2018-Jun-21 04:01N 51°45' W 008°00'4 8.9
2018-Jun-21 03:31N 51°46' W 007°53'4 9.0
2018-Jun-21 03:01N 51°48' W 007°46'4 8.9
2018-Jun-21 02:31N 51°49' W 007°39'4 9.0
2018-Jun-21 02:01N 51°50' W 007°32'4 8.7
2018-Jun-21 01:30N 51°51' W 007°25'53 8.8
2018-Jun-20 19:25N 52°13' W 006°06'711.2
2018-Jun-20 18:48N 52°19' W 005°60'310.7
2018-Jun-20 18:31N 52°21' W 005°57'2010.1
2018-Jun-20 16:30N 52°39' W 005°40'5 9.1
2018-Jun-20 15:59N 52°43' W 005°36'4 8.5
2018-Jun-20 15:31N 52°46' W 005°33'4 8.2
2018-Jun-20 15:00N 52°50' W 005°29'4 7.7
2018-Jun-20 14:30N 52°53' W 005°26'70 8.1
2018-Jun-20 05:52N 53°34' W 003°52'3 9.2
2018-Jun-20 05:30N 53°34' W 003°46'5 8.8
2018-Jun-20 04:59N 53°34' W 003°38'4 8.6
2018-Jun-20 04:30N 53°34' W 003°31'5 9.0
2018-Jun-20 04:00N 53°33' W 003°24'5 9.0
2018-Jun-20 03:29N 53°32' W 003°16'4 7.7
2018-Jun-20 03:00N 53°32' W 003°10'4 8.6
2018-Jun-20 02:31N 53°29' W 003°05'4 7.7
2018-Jun-20 02:00N 53°26' W 003°01'2 3.1
2018-Jun-20 01:30N 53°24' W 003°01'0 0.0
2018-Jun-20 01:00N 53°24' W 003°01'0 0.0
2018-Jun-20 00:30N 53°24' W 003°01'0 0.8
2018-Jun-20 00:00N 53°24' W 003°02'0 0.0
2018-Jun-19 23:27N 53°24' W 003°02'0 0.0
2018-Jun-19 23:00N 53°24' W 003°02'0 0.0
2018-Jun-19 22:30N 53°24' W 003°02'0 0.0
2018-Jun-19 22:00N 53°24' W 003°02'0 0.0
2018-Jun-19 21:30N 53°24' W 003°02'0 0.0
2018-Jun-19 21:00N 53°24' W 003°02'0 0.0
2018-Jun-19 20:27N 53°24' W 003°02'0 0.0
2018-Jun-19 20:00N 53°24' W 003°02'0 0.0
2018-Jun-19 19:27N 53°24' W 003°02'0 0.0
2018-Jun-19 19:00N 53°24' W 003°02'0 0.0
2018-Jun-19 18:30N 53°24' W 003°02'0 0.0
2018-Jun-19 18:00N 53°24' W 003°02'0 0.0
2018-Jun-19 17:30N 53°24' W 003°02'0 0.0
2018-Jun-19 17:00N 53°24' W 003°02'0 0.0
2018-Jun-19 16:27N 53°24' W 003°02'0 0.0
2018-Jun-19 15:57N 53°24' W 003°02'0 0.0
2018-Jun-19 15:30N 53°24' W 003°02'0 0.0
2018-Jun-19 15:00N 53°24' W 003°02'0 0.0
2018-Jun-19 14:30N 53°24' W 003°02'0 0.0
2018-Jun-19 13:48N 53°24' W 003°02'0 0.0
2018-Jun-19 13:30N 53°24' W 003°02'0 0.0
2018-Jun-19 13:00N 53°24' W 003°02'0 0.0
2018-Jun-19 12:30N 53°24' W 003°02'0 0.0
2018-Jun-19 12:00N 53°24' W 003°02'0 0.0
2018-Jun-19 11:24N 53°24' W 003°02'0 0.0
2018-Jun-19 11:00N 53°24' W 003°02'0 0.0
2018-Jun-19 10:30N 53°24' W 003°02'0 0.0
2018-Jun-19 09:54N 53°24' W 003°02'0 0.0
2018-Jun-19 09:30N 53°24' W 003°02'0 0.0
2018-Jun-19 09:00N 53°24' W 003°02'0 0.0
2018-Jun-19 08:30N 53°24' W 003°02'0 0.0
2018-Jun-19 08:00N 53°24' W 003°02'0 0.0
2018-Jun-19 07:30N 53°24' W 003°02'0 0.0
2018-Jun-19 07:00N 53°24' W 003°02'0 0.0
2018-Jun-19 06:27N 53°24' W 003°02'0 0.0
2018-Jun-19 06:00N 53°24' W 003°02'0 0.0
2018-Jun-19 05:30N 53°24' W 003°02'0 0.0
2018-Jun-19 05:00N 53°24' W 003°02'0 0.0
2018-Jun-19 04:30N 53°24' W 003°02'0 0.0
2018-Jun-19 04:00N 53°24' W 003°02'0 0.0
2018-Jun-19 03:30N 53°24' W 003°02'0 0.0
2018-Jun-19 03:00N 53°24' W 003°02'0 0.0
2018-Jun-19 02:30N 53°24' W 003°02'0 0.0
2018-Jun-19 02:00N 53°24' W 003°02'0 0.0
2018-Jun-19 01:30N 53°24' W 003°02'0 0.0
2018-Jun-19 01:00N 53°24' W 003°02'0 0.0
2018-Jun-19 00:30N 53°24' W 003°02'0 0.0
2018-Jun-19 00:00N 53°24' W 003°02'0 0.0
2018-Jun-18 23:30N 53°24' W 003°02'0 0.0
2018-Jun-18 23:00N 53°24' W 003°02'0 0.0
2018-Jun-18 22:30N 53°24' W 003°02'0 0.0
2018-Jun-18 22:00N 53°24' W 003°02'0 0.0
2018-Jun-18 21:27N 53°24' W 003°02'0 0.0
2018-Jun-18 21:00N 53°24' W 003°02'0 0.0
2018-Jun-18 20:30N 53°24' W 003°02'0 0.0
2018-Jun-18 20:00N 53°24' W 003°02'0 0.0
2018-Jun-18 19:30N 53°24' W 003°02'0 0.0
2018-Jun-18 19:00N 53°24' W 003°02'0 0.0
2018-Jun-18 18:30N 53°24' W 003°02'0 0.0
2018-Jun-18 18:00N 53°24' W 003°02'0 0.0
2018-Jun-18 17:30N 53°24' W 003°02'0 0.0
2018-Jun-18 17:00N 53°24' W 003°02'0 0.0
2018-Jun-18 16:27N 53°24' W 003°02'0 0.0
2018-Jun-18 16:00N 53°24' W 003°02'0 0.0
2018-Jun-18 15:18N 53°24' W 003°02'0 0.0
2018-Jun-18 15:00N 53°24' W 003°02'0 0.0
2018-Jun-18 14:27N 53°24' W 003°02'0 0.0
2018-Jun-18 13:57N 53°24' W 003°02'0 0.0
2018-Jun-18 13:30N 53°24' W 003°02'0 0.0
2018-Jun-18 13:00N 53°24' W 003°02'0 0.0
2018-Jun-18 12:30N 53°24' W 003°02'0 0.0
2018-Jun-18 12:00N 53°24' W 003°02'0 0.0
2018-Jun-18 11:24N 53°24' W 003°02'0 0.0
2018-Jun-18 11:00N 53°24' W 003°02'0 0.0
2018-Jun-18 10:30N 53°24' W 003°02'0 0.0
2018-Jun-18 10:00N 53°24' W 003°02'0 0.0
2018-Jun-18 09:30N 53°24' W 003°02'0 0.0
2018-Jun-18 08:57N 53°24' W 003°02'0 0.0
2018-Jun-18 08:30N 53°24' W 003°02'0 0.0
2018-Jun-18 08:00N 53°24' W 003°02'0 0.0
2018-Jun-18 07:30N 53°24' W 003°02'0 0.0
2018-Jun-18 07:00N 53°24' W 003°02'0 0.0
2018-Jun-18 06:15N 53°24' W 003°02'0 0.0
2018-Jun-18 06:00N 53°24' W 003°02'0 0.0
2018-Jun-18 05:30N 53°24' W 003°02'0 0.0
2018-Jun-18 05:00N 53°24' W 003°02'0 0.0
2018-Jun-18 04:30N 53°24' W 003°02'0 0.0
2018-Jun-18 03:57N 53°24' W 003°02'0 0.0
2018-Jun-18 03:30N 53°24' W 003°02'0 0.0
2018-Jun-18 03:00N 53°24' W 003°02'0 0.0
2018-Jun-18 02:30N 53°24' W 003°02'0 0.0
2018-Jun-18 02:00N 53°24' W 003°02'0 0.0
2018-Jun-18 01:30N 53°24' W 003°02'0 0.0
2018-Jun-18 01:00N 53°24' W 003°02'0 0.0
2018-Jun-18 00:30N 53°24' W 003°02'0 0.0
2018-Jun-18 00:00N 53°24' W 003°02'0 0.0
2018-Jun-17 23:30N 53°24' W 003°02'0 0.0
2018-Jun-17 23:00N 53°24' W 003°02'0 0.0
2018-Jun-17 22:30N 53°24' W 003°02'0 0.0
2018-Jun-17 22:00N 53°24' W 003°02'0 0.0
2018-Jun-17 21:30N 53°24' W 003°02'0 0.0
2018-Jun-17 21:00N 53°24' W 003°02'0 0.0
2018-Jun-17 20:30N 53°24' W 003°02'0 0.0
2018-Jun-17 20:00N 53°24' W 003°02'0 0.0
2018-Jun-17 19:27N 53°24' W 003°02'0 0.0
2018-Jun-17 19:00N 53°24' W 003°02'0 0.0
2018-Jun-17 18:30N 53°24' W 003°02'0 0.0
2018-Jun-17 18:00N 53°24' W 003°02'0 0.0
2018-Jun-17 17:27N 53°24' W 003°02'0 0.0
2018-Jun-17 16:54N 53°24' W 003°02'0 0.0
2018-Jun-17 16:30N 53°24' W 003°02'0 0.0
2018-Jun-17 16:00N 53°24' W 003°02'0 0.0
2018-Jun-17 15:30N 53°24' W 003°02'0 0.0
2018-Jun-17 15:00N 53°24' W 003°02'0 0.0
2018-Jun-17 14:30N 53°24' W 003°02'0 0.8
2018-Jun-17 14:00N 53°24' W 003°01'0 0.0
2018-Jun-17 13:30N 53°24' W 003°01'0 0.1
2018-Jun-17 13:00N 53°24' W 003°01'1 1.1
2018-Jun-17 12:30N 53°25' W 003°00'3 6.4
2018-Jun-17 12:00N 53°28' W 003°03'3 6.9
2018-Jun-17 11:30N 53°30' W 003°06'3 6.0
2018-Jun-17 11:00N 53°31' W 003°11'4 7.3
2018-Jun-17 10:29N 53°31' W 003°17'3 6.8
2018-Jun-17 10:00N 53°31' W 003°23'2 4.5
2018-Jun-17 09:30N 53°28' W 003°24'0 0.1
2018-Jun-17 08:59N 53°28' W 003°24'0 0.0
2018-Jun-17 08:29N 53°28' W 003°24'0 0.0
2018-Jun-17 07:56N 53°28' W 003°24'0 0.1
2018-Jun-17 07:29N 53°28' W 003°24'0 0.1
2018-Jun-17 06:56N 53°28' W 003°24'0 0.1
2018-Jun-17 06:29N 53°28' W 003°24'0 0.0
2018-Jun-17 05:59N 53°28' W 003°24'0 0.0
2018-Jun-17 05:29N 53°28' W 003°24'0 0.0
2018-Jun-17 04:59N 53°28' W 003°24'0 0.0
2018-Jun-17 04:29N 53°28' W 003°24'0 0.0
2018-Jun-17 03:59N 53°28' W 003°24'0 0.0
2018-Jun-17 03:26N 53°28' W 003°24'0 0.0
2018-Jun-17 02:59N 53°28' W 003°24'0 0.0
2018-Jun-17 02:29N 53°28' W 003°24'0 0.2
2018-Jun-17 01:56N 53°28' W 003°24'0 0.1
2018-Jun-17 01:29N 53°28' W 003°24'0 0.1
2018-Jun-17 00:59N 53°28' W 003°24'0 0.0
2018-Jun-17 00:29N 53°28' W 003°24'0 0.2
2018-Jun-17 00:00N 53°28' W 003°24'2 4.3
2018-Jun-16 23:31N 53°30' W 003°26'4 7.8
2018-Jun-16 23:00N 53°30' W 003°33'5 9.4
2018-Jun-16 22:30N 53°31' W 003°41'5 9.9
2018-Jun-16 21:59N 53°31' W 003°50'347 7.8
2018-Jun-15 01:38N 47°57' W 006°15'9 8.7
2018-Jun-15 00:38N 47°48' W 006°19'7 8.8
2018-Jun-14 23:53N 47°42' W 006°22'  

Dump ship's entire track history